createdAt,value
2019-02-20T00:00:17.217Z,7.80
2019-02-20T00:02:46.699Z,7.84
2019-02-20T00:05:13.863Z,7.71
2019-02-20T00:07:41.236Z,7.84
2019-02-20T00:10:09.068Z,7.96
2019-02-20T00:12:38.266Z,7.63
2019-02-20T00:15:05.572Z,7.84
2019-02-20T00:17:34.647Z,8.00
2019-02-20T00:20:01.795Z,7.80
2019-02-20T00:22:39.815Z,8.09
2019-02-20T00:25:01.371Z,7.91
2019-02-20T00:27:28.749Z,7.81
2019-02-20T00:29:55.919Z,7.76
2019-02-20T00:32:23.258Z,7.60
2019-02-20T00:34:51.755Z,7.58
2019-02-20T00:37:19.515Z,7.54
2019-02-20T00:39:46.687Z,7.99
2019-02-20T00:42:14.103Z,7.90
2019-02-20T00:44:49.261Z,7.97
2019-02-20T00:47:34.907Z,7.64
2019-02-20T00:50:02.225Z,7.61
2019-02-20T00:52:38.177Z,7.70
2019-02-20T00:55:06.428Z,7.71
2019-02-20T00:57:33.515Z,7.59
2019-02-20T01:00:00.587Z,7.70
2019-02-20T01:02:27.653Z,7.48
2019-02-20T01:04:57.393Z,7.75
2019-02-20T01:07:26.305Z,7.76
2019-02-20T01:09:54.016Z,7.65
2019-02-20T01:12:21.473Z,7.75
2019-02-20T01:14:49.340Z,7.63
2019-02-20T01:17:16.520Z,7.54
2019-02-20T01:19:43.942Z,7.46
2019-02-20T01:22:11.298Z,7.62
2019-02-20T01:24:38.454Z,7.64
2019-02-20T01:27:05.574Z,7.65
2019-02-20T01:29:32.998Z,7.59
2019-02-20T01:32:02.183Z,7.69
2019-02-20T01:34:29.707Z,7.84
2019-02-20T01:36:57.204Z,7.73
2019-02-20T01:39:24.269Z,7.76
2019-02-20T01:41:51.782Z,8.01
2019-02-20T01:44:20.869Z,7.91
2019-02-20T01:46:48.059Z,7.97
2019-02-20T01:49:15.121Z,7.80
2019-02-20T01:51:42.223Z,7.83
2019-02-20T01:54:11.079Z,7.70
2019-02-20T01:56:38.765Z,7.72
2019-02-20T01:59:07.243Z,7.87
2019-02-20T02:01:34.645Z,7.88
2019-02-20T02:04:02.363Z,7.99
2019-02-20T02:06:29.943Z,7.78
2019-02-20T04:01:58.583Z,7.81
2019-02-20T04:04:26.467Z,7.55
2019-02-20T04:06:54.181Z,7.63
2019-02-20T04:09:23.674Z,7.69
2019-02-20T04:11:51.863Z,7.69
2019-02-20T04:14:19.545Z,7.45
2019-02-20T04:16:47.281Z,7.59
2019-02-20T04:19:14.804Z,7.61
2019-02-20T04:21:44.594Z,7.47
2019-02-20T04:24:12.678Z,7.55
2019-02-20T04:26:41.206Z,7.73
2019-02-20T04:29:08.666Z,7.56
2019-02-20T04:31:36.429Z,7.73
2019-02-20T04:34:04.048Z,7.75
2019-02-20T04:36:31.857Z,7.59
2019-02-20T04:39:00.043Z,7.54
2019-02-20T04:41:27.470Z,7.75
2019-02-20T04:43:54.543Z,7.82
2019-02-20T04:46:22.022Z,7.58
2019-02-20T04:48:49.714Z,7.72
2019-02-20T04:51:17.415Z,7.49
2019-02-20T04:53:45.127Z,7.45
2019-02-20T04:56:12.264Z,7.50
2019-02-20T04:58:40.447Z,7.69
2019-02-20T05:01:09.057Z,7.65
2019-02-20T05:03:36.164Z,7.43
2019-02-20T05:06:03.353Z,7.64
2019-02-20T05:08:30.473Z,7.63
2019-02-20T05:10:57.768Z,7.57
2019-02-20T05:13:25.232Z,7.63
2019-02-20T05:15:52.320Z,7.86
2019-02-20T05:18:19.421Z,7.76
2019-02-20T05:20:47.618Z,7.84
2019-02-20T05:23:15.589Z,7.62
2019-02-20T05:25:43.027Z,7.57
2019-02-20T05:28:10.459Z,7.60
2019-02-20T05:30:37.533Z,7.77
2019-02-20T05:33:05.044Z,7.54
2019-02-20T05:35:32.766Z,7.58
2019-02-20T05:38:00.427Z,7.83
2019-02-20T05:40:28.264Z,7.89
2019-02-20T05:42:55.482Z,7.82
2019-02-20T05:45:22.520Z,7.84
2019-02-20T05:47:50.516Z,7.83
2019-02-20T05:50:17.580Z,7.67
2019-02-20T05:52:44.715Z,7.92
2019-02-20T05:55:11.851Z,7.84
2019-02-20T05:57:39.304Z,7.75
2019-02-20T06:00:07.635Z,7.51
2019-02-20T06:02:34.740Z,7.68
2019-02-20T06:05:03.415Z,7.61
2019-02-20T06:07:32.574Z,7.90
2019-02-20T06:09:59.745Z,7.88
2019-02-20T06:12:28.618Z,7.73
2019-02-20T06:14:55.977Z,7.59
2019-02-20T06:17:23.031Z,7.61
2019-02-20T06:19:50.517Z,7.65
2019-02-20T06:22:18.044Z,7.78
2019-02-20T06:24:45.794Z,7.65
2019-02-20T06:27:13.209Z,7.62
2019-02-20T06:29:41.323Z,7.75
2019-02-20T06:32:08.990Z,7.57
2019-02-20T06:34:37.565Z,7.69
2019-02-20T06:37:05.435Z,7.70
2019-02-20T06:39:33.811Z,7.88
2019-02-20T06:42:01.910Z,7.74
2019-02-20T06:44:28.977Z,7.71
2019-02-20T06:46:56.797Z,7.75
2019-02-20T06:49:24.565Z,7.68
2019-02-20T06:51:53.042Z,7.56
2019-02-20T06:54:20.517Z,7.54
2019-02-20T06:56:47.992Z,7.95
2019-02-20T06:59:15.340Z,7.81
2019-02-20T07:01:42.970Z,7.68
2019-02-20T07:04:10.324Z,7.81
2019-02-20T07:06:49.760Z,7.87
2019-02-20T07:09:50.698Z,7.65
2019-02-20T07:12:26.963Z,7.80
2019-02-20T07:15:34.255Z,8.00
2019-02-20T07:18:39.296Z,7.80
2019-02-20T07:21:37.168Z,7.95
2019-02-20T07:24:28.686Z,8.00
2019-02-20T07:27:02.466Z,8.16
2019-02-20T07:30:02.307Z,8.08
2019-02-20T07:32:32.469Z,7.91
2019-02-20T07:35:00.402Z,8.10
2019-02-20T07:37:27.747Z,8.04
2019-02-20T07:39:54.783Z,8.19
2019-02-20T07:42:21.814Z,8.06
2019-02-20T07:44:48.906Z,8.18
2019-02-20T07:47:17.683Z,7.92
2019-02-20T07:49:45.861Z,8.23
2019-02-20T07:52:13.827Z,8.22
2019-02-20T07:54:40.904Z,8.39
2019-02-20T07:57:08.327Z,8.61
2019-02-20T07:59:35.711Z,8.42
2019-02-20T08:02:02.775Z,8.34
2019-02-20T08:04:29.874Z,8.46
2019-02-20T08:06:56.938Z,8.36
2019-02-20T08:09:24.635Z,8.55
2019-02-20T08:11:52.492Z,8.58
2019-02-20T08:14:19.558Z,8.50
2019-02-20T08:16:52.262Z,8.65
2019-02-20T08:19:16.262Z,8.61
2019-02-20T08:21:43.923Z,8.61
2019-02-20T08:24:11.373Z,8.56
2019-02-20T08:26:38.435Z,8.77
2019-02-20T08:29:05.794Z,8.79
2019-02-20T08:31:33.235Z,8.77
2019-02-20T08:34:01.562Z,8.64
2019-02-20T08:36:28.655Z,8.59
2019-02-20T08:38:56.018Z,8.83
2019-02-20T08:41:23.829Z,8.86
2019-02-20T08:43:51.987Z,8.92
2019-02-20T08:46:20.074Z,9.09
2019-02-20T08:48:47.799Z,9.31
2019-02-20T08:51:14.874Z,9.27
2019-02-20T08:53:42.241Z,9.14
2019-02-20T08:56:09.334Z,9.11
2019-02-20T08:58:36.394Z,9.32
2019-02-20T09:01:05.435Z,8.97
2019-02-20T09:03:33.719Z,9.46
2019-02-20T09:06:02.281Z,9.56
2019-02-20T09:08:29.687Z,9.14
2019-02-20T09:10:56.793Z,9.33
2019-02-20T09:13:26.106Z,9.50
2019-02-20T09:15:53.225Z,9.32
2019-02-20T09:18:20.286Z,9.58
2019-02-20T09:20:47.476Z,9.42
2019-02-20T09:23:15.978Z,9.33
2019-02-20T09:25:44.853Z,9.33
2019-02-20T09:28:13.000Z,9.45
2019-02-20T09:30:40.244Z,9.67
2019-02-20T09:33:08.053Z,9.53
2019-02-20T09:35:35.124Z,9.79
2019-02-20T09:38:02.195Z,9.48
2019-02-20T09:40:29.909Z,9.96
2019-02-20T09:42:58.006Z,9.94
2019-02-20T09:45:26.152Z,9.73
2019-02-20T09:47:54.360Z,9.74
2019-02-20T09:50:22.830Z,9.79
2019-02-20T09:52:52.423Z,9.85
2019-02-20T09:55:18.832Z,9.96
2019-02-20T09:57:45.963Z,9.77
2019-02-20T10:00:14.582Z,10.02
2019-02-20T10:02:42.871Z,10.01
2019-02-20T10:05:10.096Z,9.94
2019-02-20T10:07:37.554Z,9.79
2019-02-20T10:10:05.319Z,9.85
2019-02-20T10:12:32.775Z,9.73
2019-02-20T10:14:59.847Z,10.32
2019-02-20T10:17:28.040Z,10.51
2019-02-20T10:19:55.323Z,10.26
2019-02-20T10:22:22.765Z,10.10
2019-02-20T10:24:50.389Z,10.25
2019-02-20T10:27:19.289Z,10.18
2019-02-20T10:29:46.350Z,9.87
2019-02-20T10:32:13.697Z,10.13
2019-02-20T10:34:42.903Z,9.94
2019-02-20T10:37:09.966Z,9.92
2019-02-20T10:39:37.022Z,9.83
2019-02-20T10:42:04.736Z,9.65
2019-02-20T10:44:32.092Z,9.94
2019-02-20T10:46:59.865Z,10.04
2019-02-20T10:49:28.746Z,9.90
2019-02-20T10:51:55.820Z,10.07
2019-02-20T10:54:23.197Z,9.66
2019-02-20T10:56:50.807Z,9.66
2019-02-20T10:59:21.036Z,9.61
2019-02-20T11:01:48.658Z,9.70
2019-02-20T11:04:15.786Z,9.91
2019-02-20T11:06:42.945Z,9.78
2019-02-20T11:09:10.854Z,9.73
2019-02-20T11:11:38.946Z,9.74
2019-02-20T11:14:07.450Z,9.64
2019-02-20T11:16:35.922Z,9.72
2019-02-20T11:19:05.196Z,9.79
2019-02-20T11:21:34.143Z,9.89
2019-02-20T11:24:01.641Z,9.72
2019-02-20T11:26:28.749Z,10.15
2019-02-20T11:28:56.751Z,9.73
2019-02-20T11:31:24.243Z,9.63
2019-02-20T11:33:51.424Z,9.90
2019-02-20T11:36:20.096Z,9.83
2019-02-20T11:38:49.421Z,10.18
2019-02-20T11:41:17.322Z,9.85
2019-02-20T11:43:45.304Z,9.95
2019-02-20T11:46:12.490Z,9.95
2019-02-20T11:48:39.692Z,9.57
2019-02-20T11:51:06.816Z,9.78
2019-02-20T11:53:37.409Z,9.54
2019-02-20T11:56:05.838Z,9.44
2019-02-20T11:58:33.510Z,9.50
2019-02-20T12:01:02.700Z,10.05
2019-02-20T12:03:31.215Z,9.84
2019-02-20T12:05:58.297Z,9.94
2019-02-20T12:08:25.402Z,9.95
2019-02-20T12:10:52.871Z,9.83
2019-02-20T12:13:21.321Z,10.06
2019-02-20T12:15:50.031Z,9.95
2019-02-20T12:18:17.716Z,10.05
2019-02-20T12:20:46.287Z,9.70
2019-02-20T12:23:14.476Z,9.45
2019-02-20T12:25:41.987Z,9.32
2019-02-20T12:28:09.357Z,9.52
2019-02-20T12:30:38.110Z,9.75
2019-02-20T12:33:05.468Z,9.95
2019-02-20T12:35:33.591Z,9.58
2019-02-20T12:38:02.481Z,9.54
2019-02-20T12:40:30.332Z,9.51
2019-02-20T12:42:58.508Z,9.64
2019-02-20T12:45:25.791Z,9.64
2019-02-20T12:47:52.872Z,9.57
2019-02-20T12:50:20.357Z,9.72
2019-02-20T12:52:47.858Z,9.79
2019-02-20T12:55:16.284Z,9.83
2019-02-20T12:57:43.814Z,9.69
2019-02-20T13:00:11.474Z,9.58
2019-02-20T13:02:40.446Z,9.77
2019-02-20T13:05:11.098Z,9.84
2019-02-20T13:07:38.683Z,9.70
2019-02-20T13:10:06.584Z,9.67
2019-02-20T13:12:33.968Z,9.33
2019-02-20T13:15:01.518Z,9.31
2019-02-20T13:17:30.545Z,9.35
2019-02-20T13:19:57.912Z,9.35
2019-02-20T13:22:25.312Z,9.71
2019-02-20T13:24:52.723Z,9.64
2019-02-20T13:27:22.717Z,9.71
2019-02-20T13:29:49.035Z,9.63
2019-02-20T13:32:16.227Z,10.04
2019-02-20T13:34:45.850Z,9.70
2019-02-20T13:37:13.503Z,9.67
2019-02-20T13:39:41.676Z,9.67
2019-02-20T13:42:08.793Z,9.67
2019-02-20T13:44:36.291Z,9.59
2019-02-20T13:47:04.960Z,9.71
2019-02-20T13:49:33.031Z,9.38
2019-02-20T13:52:00.414Z,9.92
2019-02-20T13:54:28.172Z,9.71
2019-02-20T13:57:01.928Z,9.91
2019-02-20T13:59:26.334Z,10.11
2019-02-20T14:01:53.742Z,10.25
2019-02-20T14:04:20.842Z,9.98
2019-02-20T14:06:47.934Z,10.24
2019-02-20T14:09:15.340Z,10.15
2019-02-20T14:11:47.616Z,10.07
2019-02-20T14:14:16.742Z,10.15
2019-02-20T14:16:45.711Z,10.23
2019-02-20T14:19:13.511Z,9.78
2019-02-20T14:21:40.582Z,9.78
2019-02-20T14:24:07.701Z,9.99
2019-02-20T14:26:35.534Z,10.02
2019-02-20T14:29:04.326Z,10.00
2019-02-20T14:31:32.103Z,10.10
2019-02-20T14:33:59.751Z,10.16
2019-02-20T14:36:27.812Z,9.86
2019-02-20T14:38:55.276Z,10.06
2019-02-20T14:41:24.171Z,10.11
2019-02-20T14:43:52.339Z,9.95
2019-02-20T14:46:19.967Z,10.17
2019-02-20T14:48:47.405Z,10.57
2019-02-20T14:51:15.937Z,10.03
2019-02-20T14:53:43.703Z,10.15
2019-02-20T14:56:12.797Z,10.73
2019-02-20T14:58:42.104Z,10.73
2019-02-20T15:01:09.500Z,10.49
2019-02-20T15:03:37.350Z,10.34
2019-02-20T15:06:05.502Z,10.21
2019-02-20T15:08:32.982Z,10.46
2019-02-20T15:11:04.039Z,10.46
2019-02-20T15:13:33.271Z,10.33
2019-02-20T15:16:01.657Z,9.99
2019-02-20T15:18:30.925Z,9.99
2019-02-20T15:20:57.999Z,9.93
2019-02-20T15:23:25.056Z,9.93
2019-02-20T15:25:52.204Z,9.93
2019-02-20T15:28:19.570Z,10.00
2019-02-20T15:30:46.977Z,9.98
2019-02-20T15:33:14.209Z,9.96
2019-02-20T15:35:41.491Z,9.96
2019-02-20T15:38:08.570Z,9.83
2019-02-20T15:40:35.674Z,9.93
2019-02-20T15:43:02.768Z,9.96
2019-02-20T15:45:30.231Z,9.96
2019-02-20T15:47:58.292Z,9.97
2019-02-20T15:50:25.721Z,9.82
2019-02-20T15:52:52.788Z,9.72
2019-02-20T15:55:19.892Z,9.96
2019-02-20T15:57:48.014Z,9.96
2019-02-20T16:00:18.721Z,9.98
2019-02-20T16:02:45.796Z,10.00
2019-02-20T16:05:15.074Z,10.05
2019-02-20T16:07:42.143Z,10.05
2019-02-20T16:10:09.679Z,10.05
2019-02-20T16:12:37.139Z,10.05
2019-02-20T16:15:05.437Z,9.90
2019-02-20T16:17:33.098Z,9.90
2019-02-20T16:20:00.455Z,9.90
2019-02-20T16:22:28.147Z,10.06
2019-02-20T16:24:55.530Z,9.95
2019-02-20T16:27:22.627Z,10.03
2019-02-20T16:29:50.279Z,9.86
2019-02-20T16:32:19.203Z,9.86
2019-02-20T16:34:47.376Z,9.66
2019-02-20T16:37:14.903Z,9.64
2019-02-20T16:39:42.075Z,9.80
2019-02-20T16:42:10.417Z,9.83
2019-02-20T16:44:38.826Z,9.90
2019-02-20T16:47:06.277Z,9.83
2019-02-20T16:49:34.039Z,9.83
2019-02-20T16:52:01.485Z,9.93
2019-02-20T16:54:28.716Z,9.93
2019-02-20T16:56:56.128Z,9.80
2019-02-20T16:59:24.783Z,9.80
2019-02-20T17:01:53.122Z,9.68
2019-02-20T17:04:20.612Z,9.77
2019-02-20T17:06:48.172Z,9.77
2019-02-20T17:09:15.527Z,9.67
2019-02-20T17:11:42.599Z,9.67
2019-02-20T17:14:10.120Z,9.64
2019-02-20T17:16:38.092Z,9.57
2019-02-20T17:19:07.767Z,9.62
2019-02-20T17:21:35.151Z,9.53
2019-02-20T17:24:04.583Z,9.56
2019-02-20T17:26:32.130Z,9.64
2019-02-20T17:29:01.367Z,9.64
2019-02-20T17:31:28.987Z,9.53
2019-02-20T17:33:56.655Z,9.39
2019-02-20T17:36:23.872Z,9.56
2019-02-20T17:38:51.270Z,9.09
2019-02-20T17:41:18.429Z,9.50
2019-02-20T17:43:46.231Z,9.64
2019-02-20T17:46:13.621Z,9.50
2019-02-20T17:48:40.694Z,9.35
2019-02-20T17:51:08.234Z,9.29
2019-02-20T17:53:38.043Z,9.27
2019-02-20T17:56:05.126Z,9.30
2019-02-20T17:58:32.598Z,9.28
2019-02-20T18:01:01.695Z,9.42
2019-02-20T18:03:29.927Z,9.25
2019-02-20T18:05:57.278Z,9.22
2019-02-20T18:08:24.382Z,9.26
2019-02-20T18:10:51.779Z,9.40
2019-02-20T18:13:19.803Z,9.18
2019-02-20T18:15:48.450Z,9.43
2019-02-20T18:18:15.874Z,9.35
2019-02-20T18:20:43.465Z,9.28
2019-02-20T18:23:10.780Z,9.43
2019-02-20T18:25:38.161Z,9.41
2019-02-20T18:28:06.462Z,9.38
2019-02-20T18:30:33.798Z,9.20
2019-02-20T18:33:01.434Z,9.38
2019-02-20T18:35:28.862Z,9.18
2019-02-20T18:37:55.957Z,9.21
2019-02-20T18:40:23.094Z,9.35
2019-02-20T18:42:52.344Z,9.14
2019-02-20T18:45:19.453Z,9.35
2019-02-20T18:47:46.555Z,9.29
2019-02-20T18:50:13.816Z,9.35
2019-02-20T18:52:42.271Z,9.49
2019-02-20T18:55:11.242Z,9.67
2019-02-20T18:57:38.891Z,9.44
2019-02-20T19:00:10.037Z,9.32
2019-02-20T19:02:38.569Z,9.31
2019-02-20T19:05:06.373Z,9.30
2019-02-20T19:07:34.753Z,9.47
2019-02-20T19:10:02.093Z,9.48
2019-02-20T19:13:04.401Z,9.44
2019-02-20T19:15:44.187Z,9.49
2019-02-20T19:19:02.339Z,9.54
2019-02-20T19:22:12.813Z,9.46
2019-02-20T19:25:20.388Z,9.40
2019-02-20T19:28:43.985Z,9.66
2019-02-20T19:31:38.187Z,9.57
2019-02-20T19:34:46.659Z,9.72
2019-02-20T19:38:07.600Z,9.62
2019-02-20T19:41:03.004Z,9.70
2019-02-20T19:43:45.046Z,9.90
2019-02-20T19:46:45.059Z,9.82
2019-02-20T19:49:39.227Z,9.71
2019-02-20T19:52:37.862Z,9.74
2019-02-20T19:55:10.845Z,9.83
2019-02-20T19:58:02.574Z,9.93
2019-02-20T20:01:17.958Z,9.94
2019-02-20T20:04:26.219Z,9.83
2019-02-20T20:07:12.751Z,9.80
2019-02-20T20:09:59.436Z,9.97
2019-02-20T20:13:01.934Z,9.70
2019-02-20T20:15:41.947Z,9.98
2019-02-20T20:18:32.388Z,10.13
2019-02-20T20:21:52.920Z,10.13
2019-02-20T20:25:14.719Z,9.90
2019-02-20T20:28:04.088Z,9.93
2019-02-20T20:31:06.741Z,9.95
2019-02-20T20:34:22.981Z,9.98
2019-02-20T20:37:22.055Z,10.01
2019-02-20T20:40:32.020Z,9.91
2019-02-20T20:43:51.828Z,10.04
2019-02-20T20:46:46.636Z,9.94
2019-02-20T20:50:05.345Z,9.86
2019-02-20T20:52:58.214Z,9.90
2019-02-20T20:55:49.446Z,9.81
2019-02-20T20:58:52.336Z,9.74
2019-02-20T21:02:17.099Z,9.92
2019-02-20T21:05:30.585Z,9.76
2019-02-20T21:08:04.546Z,9.83
2019-02-20T21:11:24.530Z,9.73
2019-02-20T21:14:33.562Z,9.82
2019-02-20T21:17:40.388Z,9.74
2019-02-20T21:20:45.824Z,9.80
2019-02-20T21:23:54.589Z,9.76
2019-02-20T21:26:53.092Z,9.67
2019-02-20T21:29:51.886Z,9.69
2019-02-20T21:33:19.002Z,9.77
2019-02-20T21:36:04.745Z,9.89
2019-02-20T21:39:25.207Z,9.82
2019-02-20T21:42:18.314Z,9.72
2019-02-20T21:45:15.975Z,9.98
2019-02-20T21:48:21.089Z,9.85
2019-02-20T21:51:29.511Z,9.82
2019-02-20T21:54:47.551Z,9.95
2019-02-20T21:58:21.009Z,9.48
2019-02-20T22:01:31.825Z,9.66
2019-02-20T22:04:41.784Z,9.77
2019-02-20T22:07:52.527Z,10.15
2019-02-20T22:10:52.976Z,9.95
2019-02-20T22:14:14.069Z,9.69
2019-02-20T22:17:26.095Z,9.60
2019-02-20T22:20:53.755Z,9.68
2019-02-20T22:24:01.712Z,9.76
2019-02-20T22:26:50.839Z,9.81
2019-02-20T22:30:04.843Z,9.71
2019-02-20T22:33:01.447Z,9.85
2019-02-20T22:36:02.667Z,10.04
2019-02-20T22:39:04.007Z,10.01
2019-02-20T22:42:04.150Z,10.03
2019-02-20T22:44:55.072Z,9.87
2019-02-20T22:48:04.747Z,10.06
2019-02-20T22:51:07.401Z,9.91
2019-02-20T22:54:06.618Z,10.03
2019-02-20T22:57:20.354Z,9.88
2019-02-20T23:00:43.858Z,9.77
2019-02-20T23:03:21.011Z,9.89
2019-02-20T23:06:26.227Z,9.95
2019-02-20T23:09:11.891Z,9.78
2019-02-20T23:12:04.299Z,9.60
2019-02-20T23:14:52.020Z,9.76
2019-02-20T23:17:20.214Z,9.50
2019-02-20T23:19:47.399Z,9.70
2019-02-20T23:22:14.532Z,9.81
2019-02-20T23:24:42.632Z,9.84
2019-02-20T23:27:11.008Z,9.74
2019-02-20T23:29:38.090Z,9.52
2019-02-20T23:32:05.958Z,9.50
2019-02-20T23:34:33.372Z,9.57
2019-02-20T23:37:00.730Z,9.63
2019-02-20T23:39:29.784Z,9.68
2019-02-20T23:41:57.244Z,9.73
2019-02-20T23:44:25.023Z,9.68
2019-02-20T23:46:52.815Z,9.58
2019-02-20T23:49:20.882Z,9.78
2019-02-20T23:51:48.238Z,9.78
2019-02-20T23:54:15.695Z,9.77
2019-02-20T23:56:43.892Z,9.67
2019-02-20T23:59:10.977Z,9.61
